sensor_id;sensor_type;location;lat;lon;timestamp;temperature;humidity
67555;HTU21D;54385;53.516;49.456;2023-05-10T00:00:39;6.43;49.48
67555;HTU21D;54385;53.516;49.456;2023-05-10T00:03:06;6.33;50.05
67555;HTU21D;54385;53.516;49.456;2023-05-10T00:05:32;6.20;50.87
67555;HTU21D;54385;53.516;49.456;2023-05-10T00:07:58;6.07;51.32
67555;HTU21D;54385;53.516;49.456;2023-05-10T00:10:25;6.08;50.76
67555;HTU21D;54385;53.516;49.456;2023-05-10T00:12:51;6.01;50.50
67555;HTU21D;54385;53.516;49.456;2023-05-10T00:15:20;6.09;49.15
67555;HTU21D;54385;53.516;49.456;2023-05-10T00:17:47;6.09;49.37
67555;HTU21D;54385;53.516;49.456;2023-05-10T00:20:14;6.11;50.53
67555;HTU21D;54385;53.516;49.456;2023-05-10T00:22:40;6.04;50.76
67555;HTU21D;54385;53.516;49.456;2023-05-10T00:25:09;6.02;50.31
67555;HTU21D;54385;53.516;49.456;2023-05-10T00:27:36;6.05;51.16
67555;HTU21D;54385;53.516;49.456;2023-05-10T00:30:03;6.01;51.95
67555;HTU21D;54385;53.516;49.456;2023-05-10T00:32:29;6.04;50.63
67555;HTU21D;54385;53.516;49.456;2023-05-10T00:34:56;6.01;50.66
67555;HTU21D;54385;53.516;49.456;2023-05-10T00:37:22;6.05;50.15
67555;HTU21D;54385;53.516;49.456;2023-05-10T00:39:49;6.00;48.79
67555;HTU21D;54385;53.516;49.456;2023-05-10T00:42:15;5.97;49.47
67555;HTU21D;54385;53.516;49.456;2023-05-10T00:44:42;5.94;48.21
67555;HTU21D;54385;53.516;49.456;2023-05-10T00:47:08;5.99;48.05
67555;HTU21D;54385;53.516;49.456;2023-05-10T00:49:36;6.07;48.33
67555;HTU21D;54385;53.516;49.456;2023-05-10T00:52:02;6.09;47.40
67555;HTU21D;54385;53.516;49.456;2023-05-10T00:54:30;6.08;47.27
67555;HTU21D;54385;53.516;49.456;2023-05-10T00:56:56;6.11;47.25
67555;HTU21D;54385;53.516;49.456;2023-05-10T00:59:23;6.05;47.24
67555;HTU21D;54385;53.516;49.456;2023-05-10T01:01:50;5.96;47.24
67555;HTU21D;54385;53.516;49.456;2023-05-10T01:04:17;6.02;47.28
67555;HTU21D;54385;53.516;49.456;2023-05-10T01:06:46;6.05;47.30
67555;HTU21D;54385;53.516;49.456;2023-05-10T01:09:12;6.07;47.69
67555;HTU21D;54385;53.516;49.456;2023-05-10T01:11:39;6.16;47.37
67555;HTU21D;54385;53.516;49.456;2023-05-10T01:14:06;6.24;47.25
67555;HTU21D;54385;53.516;49.456;2023-05-10T01:16:38;6.25;47.25
67555;HTU21D;54385;53.516;49.456;2023-05-10T01:19:31;6.27;46.96
67555;HTU21D;54385;53.516;49.456;2023-05-10T01:22:12;6.29;47.12
67555;HTU21D;54385;53.516;49.456;2023-05-10T01:25:22;6.34;46.60
67555;HTU21D;54385;53.516;49.456;2023-05-10T01:33:59;6.39;45.54
67555;HTU21D;54385;53.516;49.456;2023-05-10T01:36:40;6.44;45.44
67555;HTU21D;54385;53.516;49.456;2023-05-10T01:39:25;6.49;44.45
67555;HTU21D;54385;53.516;49.456;2023-05-10T01:42:11;6.52;44.65
67555;HTU21D;54385;53.516;49.456;2023-05-10T01:50:01;6.64;44.06
67555;HTU21D;54385;53.516;49.456;2023-05-10T01:52:36;6.67;44.32
67555;HTU21D;54385;53.516;49.456;2023-05-10T01:55:16;6.65;44.25
67555;HTU21D;54385;53.516;49.456;2023-05-10T01:57:46;6.73;44.31
67555;HTU21D;54385;53.516;49.456;2023-05-10T02:00:15;6.81;44.22
67555;HTU21D;54385;53.516;49.456;2023-05-10T02:02:45;6.86;44.17
67555;HTU21D;54385;53.516;49.456;2023-05-10T02:05:13;6.91;44.22
67555;HTU21D;54385;53.516;49.456;2023-05-10T02:07:42;6.96;44.75
67555;HTU21D;54385;53.516;49.456;2023-05-10T02:10:11;7.01;44.38
67555;HTU21D;54385;53.516;49.456;2023-05-10T02:12:42;7.13;44.38
67555;HTU21D;54385;53.516;49.456;2023-05-10T02:15:11;7.19;43.66
67555;HTU21D;54385;53.516;49.456;2023-05-10T02:17:39;7.31;43.60
67555;HTU21D;54385;53.516;49.456;2023-05-10T02:20:07;7.31;43.27
67555;HTU21D;54385;53.516;49.456;2023-05-10T02:22:35;7.34;43.06
67555;HTU21D;54385;53.516;49.456;2023-05-10T02:25:03;7.34;43.28
67555;HTU21D;54385;53.516;49.456;2023-05-10T02:27:30;7.45;43.63
67555;HTU21D;54385;53.516;49.456;2023-05-10T02:29:58;7.50;43.21
67555;HTU21D;54385;53.516;49.456;2023-05-10T02:32:27;7.60;43.76
67555;HTU21D;54385;53.516;49.456;2023-05-10T02:34:55;7.70;43.28
67555;HTU21D;54385;53.516;49.456;2023-05-10T02:37:22;7.77;43.45
67555;HTU21D;54385;53.516;49.456;2023-05-10T02:39:51;7.82;42.73
67555;HTU21D;54385;53.516;49.456;2023-05-10T02:42:19;7.94;42.39
67555;HTU21D;54385;53.516;49.456;2023-05-10T02:44:51;8.06;43.33
67555;HTU21D;54385;53.516;49.456;2023-05-10T02:47:19;8.16;43.02
67555;HTU21D;54385;53.516;49.456;2023-05-10T02:49:46;8.22;42.78
67555;HTU21D;54385;53.516;49.456;2023-05-10T02:52:16;8.29;42.77
67555;HTU21D;54385;53.516;49.456;2023-05-10T02:54:49;8.42;42.66
67555;HTU21D;54385;53.516;49.456;2023-05-10T02:57:26;8.52;43.46
67555;HTU21D;54385;53.516;49.456;2023-05-10T02:59:54;8.60;43.59
67555;HTU21D;54385;53.516;49.456;2023-05-10T03:02:21;8.68;42.37
67555;HTU21D;54385;53.516;49.456;2023-05-10T03:04:48;8.72;41.55
67555;HTU21D;54385;53.516;49.456;2023-05-10T03:07:15;8.68;41.13
67555;HTU21D;54385;53.516;49.456;2023-05-10T03:09:42;8.74;41.11
67555;HTU21D;54385;53.516;49.456;2023-05-10T03:15:17;8.92;39.54
67555;HTU21D;54385;53.516;49.456;2023-05-10T03:17:47;8.92;39.58
67555;HTU21D;54385;53.516;49.456;2023-05-10T03:20:25;8.90;39.45
67555;HTU21D;54385;53.516;49.456;2023-05-10T03:23:04;8.73;39.46
67555;HTU21D;54385;53.516;49.456;2023-05-10T03:25:31;8.72;40.01
67555;HTU21D;54385;53.516;49.456;2023-05-10T03:28:01;8.74;40.13
67555;HTU21D;54385;53.516;49.456;2023-05-10T03:30:29;8.83;40.05
67555;HTU21D;54385;53.516;49.456;2023-05-10T03:32:57;8.88;40.13
67555;HTU21D;54385;53.516;49.456;2023-05-10T03:35:24;8.94;40.04
67555;HTU21D;54385;53.516;49.456;2023-05-10T03:37:51;9.12;39.90
67555;HTU21D;54385;53.516;49.456;2023-05-10T03:40:17;9.27;39.78
67555;HTU21D;54385;53.516;49.456;2023-05-10T03:42:44;9.30;39.70
67555;HTU21D;54385;53.516;49.456;2023-05-10T03:45:11;9.31;39.80
67555;HTU21D;54385;53.516;49.456;2023-05-10T03:47:38;9.33;39.70
67555;HTU21D;54385;53.516;49.456;2023-05-10T03:50:06;9.32;39.68
67555;HTU21D;54385;53.516;49.456;2023-05-10T03:52:33;9.38;40.12
67555;HTU21D;54385;53.516;49.456;2023-05-10T03:54:59;9.55;39.29
67555;HTU21D;54385;53.516;49.456;2023-05-10T03:57:31;9.66;39.23
67555;HTU21D;54385;53.516;49.456;2023-05-10T03:59:58;9.77;38.59
67555;HTU21D;54385;53.516;49.456;2023-05-10T04:02:28;9.74;38.23
67555;HTU21D;54385;53.516;49.456;2023-05-10T04:04:56;9.81;38.04
67555;HTU21D;54385;53.516;49.456;2023-05-10T04:07:24;9.77;38.18
67555;HTU21D;54385;53.516;49.456;2023-05-10T04:09:51;9.80;38.09
67555;HTU21D;54385;53.516;49.456;2023-05-10T04:12:19;9.86;38.56
67555;HTU21D;54385;53.516;49.456;2023-05-10T04:14:47;9.98;38.56
67555;HTU21D;54385;53.516;49.456;2023-05-10T04:17:13;9.90;38.27
67555;HTU21D;54385;53.516;49.456;2023-05-10T04:19:40;9.96;38.11
67555;HTU21D;54385;53.516;49.456;2023-05-10T04:22:09;10.19;37.82
67555;HTU21D;54385;53.516;49.456;2023-05-10T04:24:39;10.35;37.28
67555;HTU21D;54385;53.516;49.456;2023-05-10T04:27:15;10.37;37.27
67555;HTU21D;54385;53.516;49.456;2023-05-10T04:30:20;10.35;37.93
67555;HTU21D;54385;53.516;49.456;2023-05-10T04:32:54;10.52;37.02
67555;HTU21D;54385;53.516;49.456;2023-05-10T04:35:37;10.67;37.08
67555;HTU21D;54385;53.516;49.456;2023-05-10T04:38:17;10.69;37.33
67555;HTU21D;54385;53.516;49.456;2023-05-10T04:40:48;10.82;37.03
67555;HTU21D;54385;53.516;49.456;2023-05-10T04:43:21;10.90;37.11
67555;HTU21D;54385;53.516;49.456;2023-05-10T04:45:59;10.97;36.50
67555;HTU21D;54385;53.516;49.456;2023-05-10T04:48:31;11.03;36.71
67555;HTU21D;54385;53.516;49.456;2023-05-10T04:51:00;11.15;36.73
67555;HTU21D;54385;53.516;49.456;2023-05-10T04:53:44;11.30;36.73
67555;HTU21D;54385;53.516;49.456;2023-05-10T04:56:17;11.44;36.18
67555;HTU21D;54385;53.516;49.456;2023-05-10T04:58:44;11.38;35.79
67555;HTU21D;54385;53.516;49.456;2023-05-10T05:01:13;11.38;35.61
67555;HTU21D;54385;53.516;49.456;2023-05-10T05:03:40;11.42;35.98
67555;HTU21D;54385;53.516;49.456;2023-05-10T05:06:13;11.36;35.63
67555;HTU21D;54385;53.516;49.456;2023-05-10T05:08:39;11.40;35.48
67555;HTU21D;54385;53.516;49.456;2023-05-10T05:11:06;11.46;35.57
67555;HTU21D;54385;53.516;49.456;2023-05-10T05:13:32;11.47;35.64
67555;HTU21D;54385;53.516;49.456;2023-05-10T05:16:01;11.48;35.59
67555;HTU21D;54385;53.516;49.456;2023-05-10T05:18:28;11.53;36.04
67555;HTU21D;54385;53.516;49.456;2023-05-10T05:20:58;11.62;35.50
67555;HTU21D;54385;53.516;49.456;2023-05-10T05:23:26;11.79;34.86
67555;HTU21D;54385;53.516;49.456;2023-05-10T05:25:53;11.93;34.60
67555;HTU21D;54385;53.516;49.456;2023-05-10T05:28:21;12.00;34.65
67555;HTU21D;54385;53.516;49.456;2023-05-10T05:30:48;12.25;34.02
67555;HTU21D;54385;53.516;49.456;2023-05-10T05:33:15;12.17;33.83
67555;HTU21D;54385;53.516;49.456;2023-05-10T05:35:42;12.18;34.13
67555;HTU21D;54385;53.516;49.456;2023-05-10T05:38:14;12.21;33.72
67555;HTU21D;54385;53.516;49.456;2023-05-10T05:40:41;12.37;33.70
67555;HTU21D;54385;53.516;49.456;2023-05-10T05:43:07;12.36;32.54
67555;HTU21D;54385;53.516;49.456;2023-05-10T05:45:34;12.22;32.58
67555;HTU21D;54385;53.516;49.456;2023-05-10T05:48:01;12.34;33.10
67555;HTU21D;54385;53.516;49.456;2023-05-10T05:50:28;12.59;32.94
67555;HTU21D;54385;53.516;49.456;2023-05-10T05:52:55;12.66;32.05
67555;HTU21D;54385;53.516;49.456;2023-05-10T05:55:23;12.91;31.35
67555;HTU21D;54385;53.516;49.456;2023-05-10T05:57:50;12.86;30.63
67555;HTU21D;54385;53.516;49.456;2023-05-10T06:00:20;12.99;30.00
67555;HTU21D;54385;53.516;49.456;2023-05-10T06:02:50;12.96;29.29
67555;HTU21D;54385;53.516;49.456;2023-05-10T06:05:17;13.01;29.62
67555;HTU21D;54385;53.516;49.456;2023-05-10T06:07:44;13.11;29.51
67555;HTU21D;54385;53.516;49.456;2023-05-10T06:10:14;13.32;29.59
67555;HTU21D;54385;53.516;49.456;2023-05-10T06:12:41;13.50;29.42
67555;HTU21D;54385;53.516;49.456;2023-05-10T06:15:09;13.77;29.14
67555;HTU21D;54385;53.516;49.456;2023-05-10T06:17:36;13.82;27.97
67555;HTU21D;54385;53.516;49.456;2023-05-10T06:20:05;13.76;28.22
67555;HTU21D;54385;53.516;49.456;2023-05-10T06:22:32;13.82;28.04
67555;HTU21D;54385;53.516;49.456;2023-05-10T06:24:58;13.85;27.84
67555;HTU21D;54385;53.516;49.456;2023-05-10T06:27:25;13.89;27.27
67555;HTU21D;54385;53.516;49.456;2023-05-10T06:29:51;13.82;27.81
67555;HTU21D;54385;53.516;49.456;2023-05-10T06:32:18;13.79;27.32
67555;HTU21D;54385;53.516;49.456;2023-05-10T06:34:44;13.86;26.67
67555;HTU21D;54385;53.516;49.456;2023-05-10T06:37:12;13.92;27.45
67555;HTU21D;54385;53.516;49.456;2023-05-10T06:39:38;14.04;26.62
67555;HTU21D;54385;53.516;49.456;2023-05-10T06:42:08;14.08;26.23
67555;HTU21D;54385;53.516;49.456;2023-05-10T06:44:34;14.10;25.70
67555;HTU21D;54385;53.516;49.456;2023-05-10T06:47:00;14.14;25.33
67555;HTU21D;54385;53.516;49.456;2023-05-10T06:49:27;14.11;25.59
67555;HTU21D;54385;53.516;49.456;2023-05-10T06:51:53;14.14;25.54
67555;HTU21D;54385;53.516;49.456;2023-05-10T06:54:20;14.33;25.17
67555;HTU21D;54385;53.516;49.456;2023-05-10T06:56:46;14.38;25.20
67555;HTU21D;54385;53.516;49.456;2023-05-10T06:59:13;14.51;25.02
67555;HTU21D;54385;53.516;49.456;2023-05-10T07:01:42;14.48;24.19
67555;HTU21D;54385;53.516;49.456;2023-05-10T07:04:09;14.40;23.91
67555;HTU21D;54385;53.516;49.456;2023-05-10T07:06:35;14.51;23.72
67555;HTU21D;54385;53.516;49.456;2023-05-10T07:09:03;14.67;24.44
67555;HTU21D;54385;53.516;49.456;2023-05-10T07:11:29;14.70;23.43
67555;HTU21D;54385;53.516;49.456;2023-05-10T07:13:56;14.59;24.07
67555;HTU21D;54385;53.516;49.456;2023-05-10T07:16:23;14.70;23.75
67555;HTU21D;54385;53.516;49.456;2023-05-10T07:18:49;14.70;22.99
67555;HTU21D;54385;53.516;49.456;2023-05-10T07:21:17;14.83;23.82
67555;HTU21D;54385;53.516;49.456;2023-05-10T07:23:43;14.96;22.93
67555;HTU21D;54385;53.516;49.456;2023-05-10T07:26:12;15.22;23.12
67555;HTU21D;54385;53.516;49.456;2023-05-10T07:28:41;15.19;22.72
67555;HTU21D;54385;53.516;49.456;2023-05-10T07:31:08;15.24;22.69
67555;HTU21D;54385;53.516;49.456;2023-05-10T07:33:34;15.34;23.88
67555;HTU21D;54385;53.516;49.456;2023-05-10T07:36:10;15.45;22.66
67555;HTU21D;54385;53.516;49.456;2023-05-10T07:38:40;15.59;22.62
67555;HTU21D;54385;53.516;49.456;2023-05-10T07:41:08;15.49;22.24
67555;HTU21D;54385;53.516;49.456;2023-05-10T07:43:34;15.46;22.08
67555;HTU21D;54385;53.516;49.456;2023-05-10T07:46:01;15.68;22.40
67555;HTU21D;54385;53.516;49.456;2023-05-10T07:48:27;15.63;22.55
67555;HTU21D;54385;53.516;49.456;2023-05-10T07:50:53;15.98;22.56
67555;HTU21D;54385;53.516;49.456;2023-05-10T07:53:20;15.91;21.98
67555;HTU21D;54385;53.516;49.456;2023-05-10T07:55:55;15.81;21.79
67555;HTU21D;54385;53.516;49.456;2023-05-10T07:58:24;15.87;21.48
67555;HTU21D;54385;53.516;49.456;2023-05-10T08:00:50;15.84;21.41
67555;HTU21D;54385;53.516;49.456;2023-05-10T08:03:17;15.99;21.89
67555;HTU21D;54385;53.516;49.456;2023-05-10T08:05:44;15.99;21.60
67555;HTU21D;54385;53.516;49.456;2023-05-10T08:08:10;16.29;21.17
67555;HTU21D;54385;53.516;49.456;2023-05-10T08:10:36;16.29;20.85
67555;HTU21D;54385;53.516;49.456;2023-05-10T08:13:03;16.47;21.41
67555;HTU21D;54385;53.516;49.456;2023-05-10T08:15:29;16.78;20.96
67555;HTU21D;54385;53.516;49.456;2023-05-10T08:17:56;16.67;21.02
67555;HTU21D;54385;53.516;49.456;2023-05-10T08:20:23;16.48;21.68
67555;HTU21D;54385;53.516;49.456;2023-05-10T08:22:49;16.73;21.33
67555;HTU21D;54385;53.516;49.456;2023-05-10T08:25:16;17.11;21.53
67555;HTU21D;54385;53.516;49.456;2023-05-10T08:27:42;17.07;20.64
67555;HTU21D;54385;53.516;49.456;2023-05-10T08:30:09;17.00;20.99
67555;HTU21D;54385;53.516;49.456;2023-05-10T08:32:35;16.87;20.88
67555;HTU21D;54385;53.516;49.456;2023-05-10T08:35:04;17.02;20.66
67555;HTU21D;54385;53.516;49.456;2023-05-10T08:37:31;17.09;20.50
67555;HTU21D;54385;53.516;49.456;2023-05-10T08:39:58;17.21;20.66
67555;HTU21D;54385;53.516;49.456;2023-05-10T08:42:26;17.39;20.52
67555;HTU21D;54385;53.516;49.456;2023-05-10T08:44:55;17.55;20.36
67555;HTU21D;54385;53.516;49.456;2023-05-10T08:47:23;17.91;20.11
67555;HTU21D;54385;53.516;49.456;2023-05-10T08:49:49;17.85;19.74
67555;HTU21D;54385;53.516;49.456;2023-05-10T08:52:17;17.84;19.63
67555;HTU21D;54385;53.516;49.456;2023-05-10T08:54:44;18.15;19.16
67555;HTU21D;54385;53.516;49.456;2023-05-10T08:57:11;17.76;19.42
67555;HTU21D;54385;53.516;49.456;2023-05-10T08:59:37;18.02;20.27
67555;HTU21D;54385;53.516;49.456;2023-05-10T09:02:05;18.25;19.50
67555;HTU21D;54385;53.516;49.456;2023-05-10T09:04:32;18.24;19.98
67555;HTU21D;54385;53.516;49.456;2023-05-10T09:06:59;18.26;19.01
67555;HTU21D;54385;53.516;49.456;2023-05-10T09:09:27;18.33;19.25
67555;HTU21D;54385;53.516;49.456;2023-05-10T09:11:54;18.42;18.96
67555;HTU21D;54385;53.516;49.456;2023-05-10T09:14:20;18.36;19.36
67555;HTU21D;54385;53.516;49.456;2023-05-10T09:16:53;18.28;19.00
67555;HTU21D;54385;53.516;49.456;2023-05-10T09:19:21;17.97;19.21
67555;HTU21D;54385;53.516;49.456;2023-05-10T09:21:48;17.78;19.86
67555;HTU21D;54385;53.516;49.456;2023-05-10T09:24:15;17.85;19.94
67555;HTU21D;54385;53.516;49.456;2023-05-10T09:26:48;18.22;19.38
67555;HTU21D;54385;53.516;49.456;2023-05-10T09:29:15;18.57;19.41
67555;HTU21D;54385;53.516;49.456;2023-05-10T09:31:52;18.80;19.15
67555;HTU21D;54385;53.516;49.456;2023-05-10T09:34:29;18.97;18.99
67555;HTU21D;54385;53.516;49.456;2023-05-10T09:36:58;19.06;18.64
67555;HTU21D;54385;53.516;49.456;2023-05-10T09:39:34;18.89;18.39
67555;HTU21D;54385;53.516;49.456;2023-05-10T09:42:05;18.80;18.05
67555;HTU21D;54385;53.516;49.456;2023-05-10T09:44:33;18.74;18.77
67555;HTU21D;54385;53.516;49.456;2023-05-10T09:47:03;18.98;18.74
67555;HTU21D;54385;53.516;49.456;2023-05-10T09:49:33;19.22;18.08
67555;HTU21D;54385;53.516;49.456;2023-05-10T09:52:06;19.69;17.78
67555;HTU21D;54385;53.516;49.456;2023-05-10T09:54:33;20.11;17.15
67555;HTU21D;54385;53.516;49.456;2023-05-10T09:57:01;20.44;16.68
67555;HTU21D;54385;53.516;49.456;2023-05-10T09:59:28;20.85;16.64
67555;HTU21D;54385;53.516;49.456;2023-05-10T10:01:59;20.72;15.76
67555;HTU21D;54385;53.516;49.456;2023-05-10T10:04:26;20.27;16.90
67555;HTU21D;54385;53.516;49.456;2023-05-10T10:07:01;20.28;16.93
67555;HTU21D;54385;53.516;49.456;2023-05-10T10:09:29;20.54;17.03
67555;HTU21D;54385;53.516;49.456;2023-05-10T10:11:56;21.29;16.83
67555;HTU21D;54385;53.516;49.456;2023-05-10T10:14:23;21.67;15.95
67555;HTU21D;54385;53.516;49.456;2023-05-10T10:16:51;21.95;15.53
67555;HTU21D;54385;53.516;49.456;2023-05-10T10:19:19;21.63;15.67
67555;HTU21D;54385;53.516;49.456;2023-05-10T10:21:49;21.61;15.87
67555;HTU21D;54385;53.516;49.456;2023-05-10T10:24:16;21.98;15.99
67555;HTU21D;54385;53.516;49.456;2023-05-10T10:26:43;22.14;15.10
67555;HTU21D;54385;53.516;49.456;2023-05-10T10:29:36;22.09;14.69
67555;HTU21D;54385;53.516;49.456;2023-05-10T10:34:47;22.16;15.19
67555;HTU21D;54385;53.516;49.456;2023-05-10T10:37:14;22.73;14.73
67555;HTU21D;54385;53.516;49.456;2023-05-10T10:39:40;23.05;14.71
67555;HTU21D;54385;53.516;49.456;2023-05-10T10:42:07;23.11;14.21
67555;HTU21D;54385;53.516;49.456;2023-05-10T10:44:36;22.88;14.03
67555;HTU21D;54385;53.516;49.456;2023-05-10T10:49:51;22.77;14.65
67555;HTU21D;54385;53.516;49.456;2023-05-10T10:52:39;23.08;14.29
67555;HTU21D;54385;53.516;49.456;2023-05-10T10:55:11;23.13;13.60
67555;HTU21D;54385;53.516;49.456;2023-05-10T10:57:45;23.17;13.68
67555;HTU21D;54385;53.516;49.456;2023-05-10T11:00:38;23.67;12.60
67555;HTU21D;54385;53.516;49.456;2023-05-10T11:03:09;24.11;12.93
67555;HTU21D;54385;53.516;49.456;2023-05-10T11:05:41;23.91;12.88
67555;HTU21D;54385;53.516;49.456;2023-05-10T11:08:11;23.91;12.95
67555;HTU21D;54385;53.516;49.456;2023-05-10T11:10:39;23.75;13.14
67555;HTU21D;54385;53.516;49.456;2023-05-10T11:13:10;23.68;12.96
67555;HTU21D;54385;53.516;49.456;2023-05-10T11:15:39;23.12;12.94
67555;HTU21D;54385;53.516;49.456;2023-05-10T11:18:18;22.93;12.94
67555;HTU21D;54385;53.516;49.456;2023-05-10T11:20:59;23.56;13.12
67555;HTU21D;54385;53.516;49.456;2023-05-10T11:26:08;24.24;11.97
67555;HTU21D;54385;53.516;49.456;2023-05-10T11:28:47;24.17;11.86
67555;HTU21D;54385;53.516;49.456;2023-05-10T11:31:18;23.76;12.65
67555;HTU21D;54385;53.516;49.456;2023-05-10T11:33:49;23.37;12.84
67555;HTU21D;54385;53.516;49.456;2023-05-10T11:36:21;23.47;12.91
67555;HTU21D;54385;53.516;49.456;2023-05-10T11:38:48;24.00;12.70
67555;HTU21D;54385;53.516;49.456;2023-05-10T11:41:15;24.66;12.06
67555;HTU21D;54385;53.516;49.456;2023-05-10T11:43:42;25.22;11.66
67555;HTU21D;54385;53.516;49.456;2023-05-10T11:46:13;24.68;11.19
67555;HTU21D;54385;53.516;49.456;2023-05-10T11:48:40;23.83;12.25
67555;HTU21D;54385;53.516;49.456;2023-05-10T11:51:08;23.67;12.79
67555;HTU21D;54385;53.516;49.456;2023-05-10T11:53:35;23.61;12.65
67555;HTU21D;54385;53.516;49.456;2023-05-10T11:56:08;24.14;11.67
67555;HTU21D;54385;53.516;49.456;2023-05-10T11:58:36;23.84;12.43
67555;HTU21D;54385;53.516;49.456;2023-05-10T12:01:03;23.59;12.75
67555;HTU21D;54385;53.516;49.456;2023-05-10T12:03:30;23.35;12.79
67555;HTU21D;54385;53.516;49.456;2023-05-10T12:05:58;23.25;12.94
67555;HTU21D;54385;53.516;49.456;2023-05-10T12:08:26;22.72;13.50
67555;HTU21D;54385;53.516;49.456;2023-05-10T12:11:03;22.92;13.20
67555;HTU21D;54385;53.516;49.456;2023-05-10T12:13:29;23.13;13.17
67555;HTU21D;54385;53.516;49.456;2023-05-10T12:15:59;23.44;13.18
67555;HTU21D;54385;53.516;49.456;2023-05-10T12:18:26;22.83;13.45
67555;HTU21D;54385;53.516;49.456;2023-05-10T12:20:53;22.71;13.28
67555;HTU21D;54385;53.516;49.456;2023-05-10T12:23:20;22.50;13.80
67555;HTU21D;54385;53.516;49.456;2023-05-10T12:25:47;22.81;13.81
67555;HTU21D;54385;53.516;49.456;2023-05-10T12:28:13;23.39;13.80
67555;HTU21D;54385;53.516;49.456;2023-05-10T12:30:39;23.40;13.67
67555;HTU21D;54385;53.516;49.456;2023-05-10T12:33:15;23.30;12.67
67555;HTU21D;54385;53.516;49.456;2023-05-10T12:35:51;23.00;13.71
67555;HTU21D;54385;53.516;49.456;2023-05-10T12:38:40;22.62;13.76
67555;HTU21D;54385;53.516;49.456;2023-05-10T12:41:11;22.31;14.07
67555;HTU21D;54385;53.516;49.456;2023-05-10T12:43:38;22.72;13.70
67555;HTU21D;54385;53.516;49.456;2023-05-10T12:46:09;22.50;13.82
67555;HTU21D;54385;53.516;49.456;2023-05-10T12:48:39;22.12;14.58
67555;HTU21D;54385;53.516;49.456;2023-05-10T12:51:07;22.14;14.37
67555;HTU21D;54385;53.516;49.456;2023-05-10T12:53:38;21.89;13.92
67555;HTU21D;54385;53.516;49.456;2023-05-10T12:56:05;21.62;14.51
67555;HTU21D;54385;53.516;49.456;2023-05-10T12:58:32;21.25;15.09
67555;HTU21D;54385;53.516;49.456;2023-05-10T13:00:59;21.28;15.32
67555;HTU21D;54385;53.516;49.456;2023-05-10T13:03:26;20.94;15.32
67555;HTU21D;54385;53.516;49.456;2023-05-10T13:05:52;20.69;15.64
67555;HTU21D;54385;53.516;49.456;2023-05-10T13:08:19;20.69;15.83
67555;HTU21D;54385;53.516;49.456;2023-05-10T13:10:45;20.74;15.74
67555;HTU21D;54385;53.516;49.456;2023-05-10T13:13:12;20.76;15.50
67555;HTU21D;54385;53.516;49.456;2023-05-10T13:15:38;20.54;15.90
67555;HTU21D;54385;53.516;49.456;2023-05-10T13:18:05;20.24;16.06
67555;HTU21D;54385;53.516;49.456;2023-05-10T13:20:32;20.13;16.27
67555;HTU21D;54385;53.516;49.456;2023-05-10T13:22:58;19.92;16.21
67555;HTU21D;54385;53.516;49.456;2023-05-10T13:25:25;19.67;16.38
67555;HTU21D;54385;53.516;49.456;2023-05-10T13:27:51;19.62;16.69
67555;HTU21D;54385;53.516;49.456;2023-05-10T13:30:18;19.55;17.01
67555;HTU21D;54385;53.516;49.456;2023-05-10T13:32:44;19.61;16.97
67555;HTU21D;54385;53.516;49.456;2023-05-10T13:35:11;19.73;17.10
67555;HTU21D;54385;53.516;49.456;2023-05-10T13:37:37;19.82;16.94
67555;HTU21D;54385;53.516;49.456;2023-05-10T13:40:04;19.91;16.74
67555;HTU21D;54385;53.516;49.456;2023-05-10T13:42:32;19.72;16.97
67555;HTU21D;54385;53.516;49.456;2023-05-10T13:45:00;19.58;16.72
67555;HTU21D;54385;53.516;49.456;2023-05-10T13:47:27;19.98;16.45
67555;HTU21D;54385;53.516;49.456;2023-05-10T13:49:54;20.02;16.37
67555;HTU21D;54385;53.516;49.456;2023-05-10T13:52:20;19.96;16.35
67555;HTU21D;54385;53.516;49.456;2023-05-10T13:54:47;20.00;16.67
67555;HTU21D;54385;53.516;49.456;2023-05-10T13:57:13;20.14;16.74
67555;HTU21D;54385;53.516;49.456;2023-05-10T13:59:39;20.34;16.23
67555;HTU21D;54385;53.516;49.456;2023-05-10T14:02:06;20.40;15.90
67555;HTU21D;54385;53.516;49.456;2023-05-10T14:04:32;20.49;15.80
67555;HTU21D;54385;53.516;49.456;2023-05-10T14:07:01;20.43;15.71
67555;HTU21D;54385;53.516;49.456;2023-05-10T14:09:27;20.41;15.62
67555;HTU21D;54385;53.516;49.456;2023-05-10T14:11:54;20.27;15.80
67555;HTU21D;54385;53.516;49.456;2023-05-10T14:14:21;20.13;16.28
67555;HTU21D;54385;53.516;49.456;2023-05-10T14:16:48;19.92;16.67
67555;HTU21D;54385;53.516;49.456;2023-05-10T14:19:14;19.68;16.92
67555;HTU21D;54385;53.516;49.456;2023-05-10T14:21:41;19.47;17.02
67555;HTU21D;54385;53.516;49.456;2023-05-10T14:24:09;19.37;17.01
67555;HTU21D;54385;53.516;49.456;2023-05-10T14:26:36;19.18;16.95
67555;HTU21D;54385;53.516;49.456;2023-05-10T14:29:03;18.94;17.06
67555;HTU21D;54385;53.516;49.456;2023-05-10T14:31:30;18.95;17.12
67555;HTU21D;54385;53.516;49.456;2023-05-10T14:33:57;18.79;17.82
67555;HTU21D;54385;53.516;49.456;2023-05-10T14:36:24;18.40;18.70
67555;HTU21D;54385;53.516;49.456;2023-05-10T14:38:51;18.20;19.27
67555;HTU21D;54385;53.516;49.456;2023-05-10T14:41:18;18.06;19.69
67555;HTU21D;54385;53.516;49.456;2023-05-10T14:43:45;17.84;20.10
67555;HTU21D;54385;53.516;49.456;2023-05-10T14:46:18;17.77;20.41
67555;HTU21D;54385;53.516;49.456;2023-05-10T14:48:48;17.68;20.68
67555;HTU21D;54385;53.516;49.456;2023-05-10T14:51:15;17.74;20.99
67555;HTU21D;54385;53.516;49.456;2023-05-10T14:53:42;17.79;21.00
67555;HTU21D;54385;53.516;49.456;2023-05-10T14:56:09;17.64;20.96
67555;HTU21D;54385;53.516;49.456;2023-05-10T14:58:36;17.39;21.32
67555;HTU21D;54385;53.516;49.456;2023-05-10T15:01:06;17.14;20.99
67555;HTU21D;54385;53.516;49.456;2023-05-10T15:03:32;17.01;21.11
67555;HTU21D;54385;53.516;49.456;2023-05-10T15:05:59;16.88;21.30
67555;HTU21D;54385;53.516;49.456;2023-05-10T15:08:26;16.70;22.68
67555;HTU21D;54385;53.516;49.456;2023-05-10T15:10:55;16.46;23.66
67555;HTU21D;54385;53.516;49.456;2023-05-10T15:13:29;16.30;24.16
67555;HTU21D;54385;53.516;49.456;2023-05-10T15:16:04;16.14;24.14
67555;HTU21D;54385;53.516;49.456;2023-05-10T15:18:31;16.08;24.13
67555;HTU21D;54385;53.516;49.456;2023-05-10T15:20:58;16.11;24.36
67555;HTU21D;54385;53.516;49.456;2023-05-10T15:23:24;16.05;24.36
67555;HTU21D;54385;53.516;49.456;2023-05-10T15:25:53;15.96;24.69
67555;HTU21D;54385;53.516;49.456;2023-05-10T15:28:22;15.84;24.62
67555;HTU21D;54385;53.516;49.456;2023-05-10T15:30:49;15.78;24.81
67555;HTU21D;54385;53.516;49.456;2023-05-10T15:33:16;15.62;24.92
67555;HTU21D;54385;53.516;49.456;2023-05-10T15:35:42;15.55;25.17
67555;HTU21D;54385;53.516;49.456;2023-05-10T15:38:09;15.53;25.29